AirNav   Air Wisconsin Up To $57,000 Bonus
 
 867 users online  

3S2 Swans Field Airport
Dixfield, Maine, USA

GOING TO DIXFIELD?


FAA INFORMATION EFFECTIVE 26 JANUARY 2023

Location

FAA Identifier: 3S2
Lat/Long: 44-30-50.9000N 070-24-24.5000W
44-30.848333N 070-24.408333W
44.5141389,-70.4068056
(estimated)
Elevation: 418.4 ft. / 128 m (estimated)
Variation: 18W (1985)
From city: 3 miles SE of DIXFIELD, ME
Time zone: UTC -5 (UTC -4 during Daylight Saving Time)
Zip code: 04224

Airport Operations

Airport use: Open to the public
Activation date: 05/1971
Control tower: no
ARTCC: BOSTON CENTER
FSS: BANGOR FLIGHT SERVICE STATION
NOTAMs facility: BGR (NOTAM-D service available)
Attendance: UNATNDD
Wind indicator: yes
Segmented circle: no

Airport Communications

CTAF: 122.9
WX AWOS-AV at 0B1 (18 nm W): 119.075 (207-512-2516)

Nearby radio navigation aids

VOR radial/distance  VOR name  Freq  Var
AUGr312/28.6AUGUSTA VOR/DME114.9518W

Airport Services

Parking: hangars and tiedowns
Airframe service: NONE
Powerplant service: NONE

Runway Information

Runway 12/30

Dimensions: 1808 x 40 ft. / 551 x 12 m
Surface: turf, in good condition
RUNWAY 12  RUNWAY 30
Latitude: 44-30.924372N44-30.773688N
Longitude: 070-24.588318W070-24.229843W
Elevation: 417.9 ft.418.4 ft.
Traffic pattern: leftleft
Runway heading: 139 magnetic, 121 true319 magnetic, 301 true
Touchdown point: yes, no lightsyes, no lights
Obstructions: 55 ft. trees, 65 ft. right of centerline
40-50 FT TREES FM THR TO 400 FT SE, 35 FT L OF CNTRLN.
8 ft. trees
+4 FT BERM EOR ACRS RWY BNTH TREES; +12 FT DIRT PILE 20 FT FM THR ON CNTRLN.

Airport Ownership and Management from official FAA records

Ownership: Privately-owned
Owner: ROYAL SWAN
1308 CANTON PT. ROAD
DIXFIELD, ME 04224
Phone (207) 491-5025
Manager: ROYAL SWAN
1308 CANTON PT. ROAD
DIXFIELD, ME 04224
Phone (207) 491-5025

Airport Operational Statistics

Aircraft based on the field: 7
Single engine airplanes: 7
    
Aircraft operations: avg 43/month *
98% local general aviation
2% transient general aviation
* for 12-month period ending 08 August 2022

Additional Remarks

CTC AMGR FOR RWY CONDS IN WINTER: 207-491-5025.
ACCESS ROADWAY 45 FT FM RWY 12/30, CNTRLN ALG NORTH SIDE.
PVT ROADWAY, +10 FT, CROSSES RWY 12/30 APRX 700 FT FM NW THR.
WILDLIFE ON OR INVOF ARPT.
FOR CD CTC PORTLAND APCH AT 207-874-7320, WHEN APCH CLSD CTC BOSTON ARTCC AT 603-879-6859.

Instrument Procedures

There are no published instrument procedures at 3S2.

Some nearby airports with instrument procedures:

0B1 - Bethel Regional Airport (18 nm W)
81B - Oxford County Regional Airport (22 nm S)
KOWK - Central Maine/Norridgewock Airport (26 nm NE)
KLEW - Auburn/Lewiston Municipal Airport (28 nm S)
M57 - Rangeley Lake Seaplane Base (29 nm N)
 
Loc | Ops | Rwys | IFR | FBO | Links
Com | Nav | Svcs | Stats | Notes
Area around 3S2 (Swans Field Airport)
 
Road maps at: MapQuest Bing Google
 
Aerial photo
WARNING: Photo may not be current or correct
Aerial photo of 3S2 (Swans Field Airport)
Do you have a better or more recent aerial photo of Swans Field Airport that you would like to share? If so, please send us your photo.

 
Sectional chart

 
Airport distance calculator
Flying to Swans Field Airport? Find the distance to fly.

From to 3S2

Sunrise and sunset
Times for 31-Jan-2023
 Local
(UTC-5)
 Zulu
(UTC)
Morning civil twilight06:3111:31
Sunrise07:0212:02
Sunset16:4821:48
Evening civil twilight17:1922:19

Current date and time
Zulu (UTC)  31-Jan-2023 12:56:28
Local (UTC-5)  31-Jan-2023 07:56:28
 
METAR
KAUG 
29nm SE 
311153Z AUTO 33003KT 10SM OVC085 M06/M07 A3010 RMK AO2 SLP199 60001 70006 T10561072 11044 21056 53006
KLEW 
29nm S 
311156Z AUTO 00000KT 10SM FEW007 OVC080 A3011 RMK AO2 SLPNO 60000 7//// 51010 FZRANO $
KWVL 
32nm E 
311156Z AUTO 00000KT 10SM OVC085 M07/M08 A3008 RMK AO2 SLP219 60000 T10671078 11050 21067 53006 FZRANO
KBML 
33nm W 
311227Z AUTO 32010G19KT 3SM -SN FEW013 BKN028 OVC039 M07/M12 A3008 RMK AO2 P0000 T10671117
KIZG 
39nm SW 
311154Z AUTO VRB05KT 10SM SCT050 OVC075 M03/M07 A3009 RMK AO2 SLP197 60001 70007 T10331067 11017 21033 53010
KMWN 
40nm W 
311147Z 29049KT 0SM -SN FZFG BLSN VV000 M17/M17 RMK VRY LGT ICG 60001 70008 4/024 931001 11144 21169
KCWN 
44nm SW 
311155Z AUTO 18003KT 10SM CLR M16/M17 A2998 RMK AO2 SLP206 60000 T11611170 11160 21181 55002
KIWI 
44nm SE 
311153Z AUTO 00000KT 10SM OVC080 M04/M06 A3012 RMK AO2 SNE18 SLP201 P0000 60000 T10391061 11022 21039 53007
KHIE 
50nm W 
311202Z AUTO 30010KT 3SM -SN BR FEW016 SCT024 OVC035 M07/M09 A3010 RMK AO2 P0000 T10721094
TAF
KAUG 
29nm SE 
311131Z 3112/0112 30004KT P6SM BKN080 FM311500 31011G20KT P6SM VCSH SCT030 FM311800 31013G23KT P6SM FEW250 FM010400 33005KT P6SM FEW250
NOTAMs
Click for the latest NOTAMs
NOTAMs are issued by the DoD/FAA and will open in a separate window not controlled by AirNav.

 

 
 

Would you like to see your business listed on this page?

 If your business provides an interesting product or service to pilots, flight crews, aircraft, or users of the Swans Field Airport, you should consider listing it here.  To start the listing process, click on the button below
 
Add a business
 

Other Pages about Swans Field Airport

Update a link
 
Copyright © AirNav, LLC. All rights reserved. Privacy Policy  Contact